Hollis, Oklahoma
Current Conditions -  °F | °C
As of 9:08 AM on Sunday 21 Dec 2014 (Local Time) from KCDS Reporting Station
Overcast Overcast  
Wind Chill: 38°   Ceiling: 1600
Heat Index: 44°   Visibility: 10mi
Dew Point: 41°   Wind: 12mph
Humidity: 89%   Direction: 170°S
Pressure: 29.91"   Gusts: NA
Location:  34.69°N, 99.91°W
Report Text: KCDS 211508Z AUTO 17010KT 10SM FEW008 OVC016 07/05 A2991 RMK AO2 T00670050
Loading
Personal Weather Stations






























Interactive Weather Map New forecast layout! Learn more

10-Day Weather Forecast

Advertisements
Track Severe Weather on mobile